Disclaimer

Please do not use the information listed here in-flight or in-navigation, as they are not provided to us by the airports but are provided by volunteers, so they might be outdated.

Search


Regions


Airport information page

Radio informations:
Tower (TWR) - 119.2 MHz
FIRE - 121.9 MHz
Approach (APP) - 118.1 MHz

Airport informations:
Latitude: 15° 35' 22.19" N
Longitude: 032° 33' 11.38" E
Elevation: 1265 feet - 386 meters
Operating hours: 24 hour operations
Operating agency: Military-civil joint use airport
Timezone: UTC+3
Fuel: N/A

Runway information:
18/36 - 9777 x 148 feet< - >2980 x 45 meters

Recent METARs:
HSSS 160830Z 03010KT CAVOK 30/06 Q1017 NOSIG
HSSS 160900Z 03007KT CAVOK 30/06 Q1016 NOSIG
HSSS 160930Z 03009KT CAVOK 31/05 Q1016 NOSIG

Airport on the map: